21 | 08 | 2019

Daten Vortag

Wetterdaten von 10m Höhe gemessen, Station 2

Datum / Zeit Intervall min Luftfeuchte % Temperatur °C absolut Luftdruck hPa Wind m/s Windbö m/s Richtung Relative Luftdruck hPa Taupunkt °C Windchill °C Niederschlag mm
21-08-2019 00:17 5 89 15.0 1021.2 0.0 1.1 N 1024.2 13.2 15.0 0.0
21-08-2019 00:22 5 89 15.0 1021.3 1.1 2.5 W 1024.3 13.2 15.0 0.0
21-08-2019 00:27 5 89 15.0 1021.3 0.0 0.0 W 1024.3 13.2 15.0 0.0
21-08-2019 00:32 5 89 15.0 1021.4 0.0 0.0 NE 1024.4 13.2 15.0 0.0
21-08-2019 00:37 5 89 15.0 1021.3 0.0 0.0 NE 1024.3 13.2 15.0 0.0
21-08-2019 00:42 5 88 15.0 1021.3 0.0 1.1 NE 1024.3 13.0 15.0 0.0
21-08-2019 00:47 5 88 14.9 1021.3 0.0 0.0 NE 1024.3 12.9 14.9 0.0
21-08-2019 00:52 5 88 14.8 1021.3 0.0 0.0 NE 1024.3 12.8 14.8 0.0
21-08-2019 00:57 5 88 14.6 1021.3 0.0 0.0 NE 1024.3 12.7 14.6 0.0
21-08-2019 01:02 5 88 14.4 1021.3 0.0 1.1 NW 1024.3 12.5 14.4 0.0
21-08-2019 01:07 5 88 14.2 1021.2 0.0 0.0 NW 1024.2 12.3 14.2 0.0
21-08-2019 01:12 5 88 14.0 1021.3 0.0 1.1 W 1024.3 12.1 14.0 0.0
21-08-2019 01:17 5 89 13.8 1021.3 0.0 0.0 W 1024.3 12.0 13.8 0.0
21-08-2019 01:22 5 89 13.7 1021.4 0.0 0.0 W 1024.4 11.9 13.7 0.0
21-08-2019 01:27 5 89 13.5 1021.3 0.0 0.0 W 1024.3 11.7 13.5 0.0
21-08-2019 01:32 5 90 13.3 1021.5 0.0 0.0 W 1024.5 11.7 13.3 0.0
21-08-2019 01:37 5 90 13.2 1021.5 0.0 0.0 W 1024.5 11.6 13.2 0.0
21-08-2019 01:42 5 90 13.1 1021.4 0.0 1.1 W 1024.4 11.5 13.1 0.0
21-08-2019 01:47 5 91 13.0 1021.4 0.0 0.0 W 1024.4 11.6 13.0 0.0
21-08-2019 01:52 5 91 12.8 1021.4 0.0 0.0 W 1024.4 11.4 12.8 0.0
21-08-2019 01:57 5 91 12.6 1021.5 0.0 0.0 W 1024.5 11.2 12.6 0.0
21-08-2019 02:02 5 91 12.5 1021.4 0.0 0.0 W 1024.4 11.1 12.5 0.0
21-08-2019 02:07 5 91 12.5 1021.4 0.0 0.0 W 1024.4 11.1 12.5 0.0
21-08-2019 02:12 5 94 12.3 1021.3 0.0 0.0 W 1024.3 11.4 12.3 0.0
21-08-2019 02:17 5 94 12.3 1021.4 0.0 0.0 W 1024.4 11.4 12.3 0.0
21-08-2019 02:22 5 95 12.1 1021.4 0.0 1.1 W 1024.4 11.3 12.1 0.0
21-08-2019 02:27 5 95 12.0 1021.4 0.0 0.0 W 1024.4 11.2 12.0 0.0
21-08-2019 02:32 5 95 11.8 1021.4 0.0 0.0 W 1024.4 11.0 11.8 0.0
21-08-2019 02:37 5 95 11.7 1021.5 1.1 2.5 W 1024.5 10.9 11.7 0.0
21-08-2019 02:42 5 96 11.6 1021.5 1.1 2.5 NW 1024.5 11.0 11.6 0.0
21-08-2019 02:47 5 96 11.5 1021.6 0.0 0.0 NW 1024.6 10.9 11.5 0.0
21-08-2019 02:52 5 95 11.2 1021.7 0.0 0.0 NW 1024.7 10.4 11.2 0.0
21-08-2019 02:57 5 95 11.0 1021.6 0.0 0.0 NW 1024.6 10.2 11.0 0.0
21-08-2019 03:02 5 96 11.1 1021.6 0.0 0.0 NW 1024.6 10.5 11.1 0.0
21-08-2019 03:07 5 96 11.3 1021.8 0.0 0.0 NW 1024.8 10.7 11.3 0.0
21-08-2019 03:12 5 97 11.4 1021.6 0.0 0.0 NW 1024.6 11.0 11.4 0.0
21-08-2019 03:17 5 97 11.8 1021.6 0.0 0.0 SE 1024.6 11.4 11.8 0.0
21-08-2019 03:22 5 97 11.9 1021.7 0.0 0.0 SE 1024.7 11.5 11.9 0.0
21-08-2019 03:27 5 98 11.8 1021.8 0.0 0.0 SE 1024.8 11.5 11.8 0.0
21-08-2019 03:32 5 98 11.7 1021.8 0.0 0.0 SE 1024.8 11.4 11.7 0.0
21-08-2019 03:37 5 98 11.7 1021.8 0.0 0.0 SE 1024.8 11.4 11.7 0.0
21-08-2019 03:42 5 98 11.6 1021.9 0.0 1.1 SE 1024.9 11.3 11.6 0.0
21-08-2019 03:47 5 98 11.6 1021.9 0.0 0.0 SE 1024.9 11.3 11.6 0.0
21-08-2019 03:52 5 98 11.4 1021.9 0.0 0.0 SE 1024.9 11.1 11.4 0.0
21-08-2019 03:57 5 98 11.6 1021.9 0.0 0.0 SE 1024.9 11.3 11.6 0.0
21-08-2019 04:02 5 99 11.6 1021.7 0.0 0.0 SE 1024.7 11.5 11.6 0.0
21-08-2019 04:07 5 99 11.6 1021.9 0.0 0.0 SE 1024.9 11.5 11.6 0.0
21-08-2019 04:12 5 99 11.5 1021.9 0.0 1.1 SE 1024.9 11.4 11.5 0.0
21-08-2019 04:17 5 99 11.5 1021.8 0.0 0.0 SE 1024.8 11.4 11.5 0.0
21-08-2019 04:22 5 99 11.6 1021.9 0.0 1.1 N 1024.9 11.5 11.6 0.0
21-08-2019 04:27 5 99 11.7 1021.8 0.0 0.0 N 1024.8 11.6 11.7 0.0
21-08-2019 04:32 5 99 11.9 1022.0 0.0 0.0 N 1025.0 11.8 11.9 0.0
21-08-2019 04:37 5 99 11.9 1021.9 0.0 0.0 N 1024.9 11.8 11.9 0.0
21-08-2019 04:42 5 99 11.8 1022.0 0.0 0.0 N 1025.0 11.7 11.8 0.0
21-08-2019 04:47 5 99 11.9 1022.0 0.0 0.0 W 1025.0 11.8 11.9 0.0
21-08-2019 04:52 5 99 11.9 1022.0 0.0 0.0 NW 1025.0 11.8 11.9 0.0
21-08-2019 04:57 5 99 12.0 1021.9 0.0 0.0 NW 1024.9 11.9 12.0 0.0
21-08-2019 05:02 5 99 12.1 1021.9 0.0 0.0 W 1024.9 12.0 12.1 0.0
21-08-2019 05:07 5 99 12.1 1021.9 0.0 0.0 W 1024.9 12.0 12.1 0.0
21-08-2019 05:12 5 99 12.1 1021.9 0.0 0.0 W 1024.9 12.0 12.1 0.0
21-08-2019 05:17 5 99 12.1 1021.9 0.0 0.0 W 1024.9 12.0 12.1 0.0
21-08-2019 05:22 5 99 12.2 1022.0 1.1 3.6 W 1025.0 12.1 12.2 0.0
21-08-2019 05:27 5 99 12.2 1022.0 0.0 0.0 NW 1025.0 12.1 12.2 0.0
21-08-2019 05:32 5 99 12.1 1022.1 0.0 1.1 NW 1025.1 12.0 12.1 0.0
21-08-2019 05:37 5 99 12.1 1022.1 0.0 0.0 NW 1025.1 12.0 12.1 0.0
21-08-2019 05:42 5 99 12.0 1022.2 0.0 0.0 NW 1025.2 11.9 12.0 0.0
21-08-2019 05:47 5 99 11.8 1022.2 0.0 0.0 NW 1025.2 11.7 11.8 0.0
21-08-2019 05:52 5 99 11.7 1022.4 0.0 0.0 E 1025.4 11.6 11.7 0.0
21-08-2019 05:57 5 99 12.0 1022.5 0.0 0.0 SSE 1025.5 11.9 12.0 0.0
21-08-2019 06:02 5 99 11.9 1022.5 0.0 1.1 SE 1025.5 11.8 11.9 0.0
21-08-2019 06:07 5 99 11.9 1022.4 0.0 1.1 SE 1025.4 11.8 11.9 0.0
21-08-2019 06:12 5 99 11.9 1022.5 1.1 2.5 SE 1025.5 11.8 11.9 0.0
21-08-2019 06:17 5 99 11.9 1022.6 1.1 2.5 E 1025.6 11.8 11.9 0.0
21-08-2019 06:22 5 99 11.9 1022.5 0.0 0.0 E 1025.5 11.8 11.9 0.0
21-08-2019 06:27 5 99 11.9 1022.7 0.0 1.1 E 1025.7 11.8 11.9 0.0
21-08-2019 06:32 5 99 11.9 1022.6 0.0 1.1 SE 1025.6 11.8 11.9 0.0
21-08-2019 06:37 5 99 12.0 1022.7 0.0 0.0 SE 1025.7 11.9 12.0 0.0
21-08-2019 06:42 5 99 12.1 1022.8 0.0 0.0 SE 1025.8 12.0 12.1 0.0
21-08-2019 06:47 5 99 12.2 1022.8 0.0 1.1 E 1025.8 12.1 12.2 0.0
21-08-2019 06:52 5 99 12.2 1022.7 0.0 1.1 E 1025.7 12.1 12.2 0.0
21-08-2019 06:57 5 99 12.3 1022.7 0.0 0.0 S 1025.7 12.2 12.3 0.0
21-08-2019 07:02 5 99 12.3 1022.7 0.0 0.0 S 1025.7 12.2 12.3 0.0
21-08-2019 07:07 5 99 12.4 1022.8 0.0 0.0 S 1025.8 12.3 12.4 0.0
21-08-2019 07:12 5 98 12.5 1022.8 0.0 0.0 E 1025.8 12.2 12.5 0.0
21-08-2019 07:17 5 97 12.5 1022.9 0.0 0.0 E 1025.9 12.1 12.5 0.0
21-08-2019 07:22 5 97 12.6 1022.9 0.0 0.0 E 1025.9 12.2 12.6 0.0
21-08-2019 07:27 5 97 12.8 1023.0 0.0 0.0 SE 1026.0 12.4 12.8 0.0
21-08-2019 07:32 5 97 13.1 1023.1 0.0 0.0 SE 1026.1 12.7 13.1 0.0
21-08-2019 07:37 5 98 14.0 1023.1 0.0 0.0 SE 1026.1 13.7 14.0 0.0
21-08-2019 07:42 5 98 14.7 1023.3 0.0 0.0 N 1026.3 14.4 14.7 0.0
21-08-2019 07:47 5 96 15.7 1023.3 0.0 1.1 NE 1026.3 15.1 15.7 0.0
21-08-2019 07:52 5 92 16.1 1023.3 1.1 5.0 S 1026.3 14.8 16.1 0.0
21-08-2019 07:57 5 85 16.5 1023.5 1.1 2.5 SW 1026.5 14.0 16.5 0.0
21-08-2019 08:02 5 82 16.8 1023.5 1.1 2.5 S 1026.5 13.7 16.8 0.0
21-08-2019 08:07 5 82 16.8 1023.4 1.1 2.5 S 1026.4 13.7 16.8 0.0
21-08-2019 08:12 5 75 17.5 1023.5 2.5 5.0 SW 1026.5 13.0 17.5 0.0
21-08-2019 08:17 5 73 17.7 1023.6 2.5 6.1 W 1026.6 12.8 17.7 0.0
21-08-2019 08:22 5 73 17.8 1023.6 0.0 1.1 W 1026.6 12.9 17.8 0.0
21-08-2019 08:27 5 73 17.9 1023.7 1.1 3.6 NWW 1026.7 13.0 17.9 0.0
21-08-2019 08:32 5 72 17.9 1023.9 3.6 5.0 NW 1026.9 12.8 17.9 0.0
21-08-2019 08:37 5 70 17.9 1023.8 7.2 11.2 SW 1026.8 12.4 17.2 0.0
21-08-2019 08:42 5 71 17.5 1023.8 2.5 3.6 W 1026.8 12.2 17.5 0.0
21-08-2019 08:47 5 71 17.6 1023.8 7.2 8.6 W 1026.8 12.3 16.8 0.0
21-08-2019 08:52 5 72 17.6 1023.9 5.0 7.2 SW 1026.9 12.5 17.6 0.0
21-08-2019 08:57 5 71 17.7 1024.0 7.2 9.7 SW 1027.0 12.4 17.0 0.0
21-08-2019 09:02 5 71 18.0 1024.0 6.1 8.6 W 1027.0 12.7 18.0 0.0
21-08-2019 09:07 5 71 18.3 1024.1 6.1 8.6 W 1027.1 13.0 18.3 0.0
21-08-2019 09:12 5 70 18.5 1024.1 2.5 6.1 W 1027.1 12.9 18.5 0.0
21-08-2019 09:17 5 70 18.4 1024.2 6.1 9.7 W 1027.2 12.9 18.4 0.0
21-08-2019 09:22 5 70 18.3 1024.1 7.2 9.7 NW 1027.1 12.8 17.6 0.0
21-08-2019 09:27 5 70 18.3 1024.2 3.6 5.0 NE 1027.2 12.8 18.3 0.0
21-08-2019 09:32 5 70 18.8 1024.2 5.0 7.2 NW 1027.2 13.2 18.8 0.0
21-08-2019 09:37 5 69 18.8 1024.3 6.1 8.6 NW 1027.3 13.0 18.8 0.0
21-08-2019 09:42 5 70 19.0 1024.1 5.0 7.2 NE 1027.1 13.4 19.0 0.0
21-08-2019 09:47 5 70 19.0 1024.2 3.6 7.2 NW 1027.2 13.4 19.0 0.0
21-08-2019 09:52 5 68 19.5 1024.3 6.1 8.6 NW 1027.3 13.5 19.5 0.0
21-08-2019 09:57 5 67 19.6 1024.3 7.2 8.6 W 1027.3 13.3 18.9 0.0
21-08-2019 10:02 5 65 19.6 1024.4 8.6 13.3 SWW 1027.4 12.9 18.4 0.0
21-08-2019 10:07 5 65 19.5 1024.4 8.6 13.3 W 1027.4 12.8 18.3 0.0
21-08-2019 10:12 5 64 19.3 1024.3 8.6 12.2 W 1027.3 12.3 18.1 0.0
21-08-2019 10:17 5 63 19.6 1024.2 7.2 8.6 NWW 1027.2 12.4 18.9 0.0
21-08-2019 10:22 5 62 19.7 1024.3 6.1 9.7 W 1027.3 12.2 19.7 0.0
21-08-2019 10:27 5 61 19.3 1024.3 9.7 13.3 W 1027.3 11.6 17.8 0.0
21-08-2019 10:32 5 64 19.5 1024.3 6.1 11.2 NW 1027.3 12.5 19.5 0.0
21-08-2019 10:37 5 61 19.8 1024.4 6.1 8.6 NW 1027.4 12.1 19.8 0.0
21-08-2019 10:42 5 61 20.3 1024.4 8.6 13.3 W 1027.4 12.6 19.2 0.0
21-08-2019 10:47 5 60 19.8 1024.4 7.2 8.6 SW 1027.4 11.8 19.2 0.0
21-08-2019 10:52 5 59 20.2 1024.3 9.7 13.3 W 1027.3 12.0 18.8 0.0
21-08-2019 10:57 5 58 20.4 1024.3 8.6 11.2 W 1027.3 11.9 19.3 0.0
21-08-2019 11:02 5 60 20.3 1024.4 11.2 14.8 NW 1027.4 12.3 18.5 0.0
21-08-2019 11:07 5 60 20.1 1024.3 5.0 8.6 NWW 1027.3 12.1 20.1 0.0
21-08-2019 11:12 5 58 20.2 1024.4 7.2 11.2 W 1027.4 11.7 19.6 0.0
21-08-2019 11:17 5 56 19.4 1024.4 3.6 7.2 W 1027.4 10.4 19.4 0.0
21-08-2019 11:22 5 60 19.7 1024.4 3.6 6.1 W 1027.4 11.7 19.7 0.0
21-08-2019 11:27 5 57 20.7 1024.5 6.1 8.6 W 1027.5 11.9 20.7 0.0
21-08-2019 11:32 5 56 21.2 1024.4 2.5 3.6 NW 1027.4 12.1 21.2 0.0
21-08-2019 11:37 5 53 21.5 1024.6 5.0 5.0 W 1027.6 11.5 21.5 0.0
21-08-2019 11:42 5 52 21.9 1024.4 3.6 5.0 W 1027.4 11.6 21.9 0.0
21-08-2019 11:47 5 51 22.1 1024.4 6.1 8.6 NEE 1027.4 11.5 22.1 0.0
21-08-2019 11:52 5 50 21.8 1024.4 7.2 9.7 SW 1027.4 10.9 21.3 0.0
21-08-2019 11:57 5 50 21.3 1024.4 7.2 12.2 W 1027.4 10.5 20.7 0.0
21-08-2019 12:02 5 51 21.1 1024.5 3.6 8.6 S 1027.5 10.6 21.1 0.0
21-08-2019 12:07 5 52 21.2 1024.5 2.5 3.6 S 1027.5 11.0 21.2 0.0
21-08-2019 12:12 5 51 20.9 1024.5 9.7 13.3 W 1027.5 10.4 19.5 0.0
21-08-2019 12:17 5 53 21.0 1024.4 3.6 7.2 SW 1027.4 11.1 21.0 0.0
21-08-2019 12:22 5 53 22.0 1024.5 2.5 5.0 W 1027.5 12.0 22.0 0.0
21-08-2019 12:27 5 51 22.4 1024.6 5.0 8.6 W 1027.6 11.8 22.4 0.0
21-08-2019 12:32 5 52 21.0 1024.6 9.7 12.2 W 1027.6 10.8 19.6 0.0
21-08-2019 12:37 5 55 20.5 1024.5 3.6 5.0 SE 1027.5 11.2 20.5 0.0
21-08-2019 12:43 5 55 20.8 1024.5 3.6 7.2 W 1027.5 11.5 20.8 0.0
21-08-2019 12:48 5 53 21.7 1024.5 3.6 6.1 W 1027.5 11.7 21.7 0.0
21-08-2019 12:53 5 53 21.4 1024.4 9.7 12.2 SW 1027.4 11.5 20.1 0.0
21-08-2019 12:58 5 53 21.6 1024.5 9.7 12.2 W 1027.5 11.6 20.3 0.0
21-08-2019 13:03 5 52 21.9 1024.4 8.6 11.2 NWW 1027.4 11.6 20.9 0.0
21-08-2019 13:08 5 49 22.5 1024.4 3.6 6.1 W 1027.4 11.3 22.5 0.0
21-08-2019 13:13 5 45 22.7 1024.4 13.3 15.8 W 1027.4 10.2 20.8 0.0
21-08-2019 13:18 5 52 21.5 1024.5 9.7 14.8 W 1027.5 11.3 20.2 0.0
21-08-2019 13:23 5 54 21.7 1024.4 2.5 5.0 N 1027.4 12.0 21.7 0.0
21-08-2019 13:28 5 52 22.0 1024.5 6.1 11.2 SW 1027.5 11.7 22.0 0.0
21-08-2019 13:33 5 48 22.7 1024.6 5.0 7.2 NW 1027.6 11.2 22.7 0.0
21-08-2019 13:38 5 52 22.0 1024.4 8.6 13.3 N 1027.4 11.7 21.0 0.0
21-08-2019 13:43 5 56 21.4 1024.5 12.2 17.3 NWW 1027.5 12.3 19.5 0.0
21-08-2019 13:48 5 58 20.8 1024.6 11.2 14.8 SWW 1027.6 12.3 19.0 0.0
21-08-2019 13:53 5 57 20.1 1024.6 12.2 14.8 W 1027.6 11.3 18.0 0.0
21-08-2019 13:58 5 55 20.4 1024.4 13.3 18.4 NW 1027.4 11.1 18.1 0.0
21-08-2019 14:03 5 55 21.1 1024.6 8.6 13.3 SW 1027.6 11.7 20.1 0.0
21-08-2019 14:08 5 54 21.3 1024.6 9.7 14.8 SW 1027.6 11.6 20.0 0.0
21-08-2019 14:13 5 54 22.4 1024.5 8.6 11.2 NW 1027.5 12.7 21.5 0.0
21-08-2019 14:18 5 52 21.7 1024.4 11.2 12.2 SW 1027.4 11.4 20.1 0.0
21-08-2019 14:23 5 52 22.0 1024.5 7.2 9.7 W 1027.5 11.7 21.5 0.0
21-08-2019 14:28 5 51 22.4 1024.6 9.7 13.3 NW 1027.6 11.8 21.2 0.0
21-08-2019 14:33 5 49 23.0 1024.5 2.5 5.0 SW 1027.5 11.7 23.0 0.0
21-08-2019 14:38 5 49 23.5 1024.6 7.2 11.2 W 1027.6 12.2 23.0 0.0
21-08-2019 14:43 5 44 24.1 1024.5 8.6 13.3 SWW 1027.5 11.1 23.3 0.0
21-08-2019 14:48 5 45 23.7 1024.4 9.7 13.3 W 1027.4 11.1 22.7 0.0
21-08-2019 14:53 5 47 24.3 1024.4 8.6 12.2 NWW 1027.4 12.3 23.5 0.0
21-08-2019 14:58 5 46 22.8 1024.4 7.2 11.2 NW 1027.4 10.6 22.3 0.0
21-08-2019 15:03 5 50 22.7 1024.5 8.6 12.2 SW 1027.5 11.8 21.8 0.0
21-08-2019 15:08 5 47 23.2 1024.5 8.6 11.2 W 1027.5 11.3 22.3 0.0
21-08-2019 15:13 5 47 22.7 1024.5 11.2 15.8 W 1027.5 10.8 21.2 0.0
21-08-2019 15:18 5 50 22.7 1024.6 13.3 17.3 NWW 1027.6 11.8 20.8 0.0
21-08-2019 15:23 5 51 23.0 1024.7 7.2 11.2 NWW 1027.7 12.3 22.5 0.0
21-08-2019 15:28 5 53 21.8 1024.6 11.2 15.8 W 1027.6 11.8 20.2 0.0
21-08-2019 15:33 5 55 21.7 1024.6 8.6 12.2 NW 1027.6 12.3 20.7 0.0
21-08-2019 15:38 5 53 21.8 1024.6 11.2 15.8 N 1027.6 11.8 20.2 0.0
21-08-2019 15:43 5 51 22.5 1024.6 7.2 11.2 W 1027.6 11.9 22.0 0.0
21-08-2019 15:48 5 49 22.5 1024.5 7.2 11.2 W 1027.5 11.3 22.0 0.0
21-08-2019 15:53 5 49 22.5 1024.6 8.6 13.3 NW 1027.6 11.3 21.6 0.0
21-08-2019 15:58 5 46 23.1 1024.6 7.2 11.2 NW 1027.6 10.9 22.6 0.0
21-08-2019 16:03 5 45 23.2 1024.7 6.1 8.6 NNW 1027.7 10.6 23.2 0.0
21-08-2019 16:08 5 45 23.1 1024.5 7.2 11.2 N 1027.5 10.5 22.6 0.0
21-08-2019 16:13 5 54 21.7 1024.6 5.0 8.6 W 1027.6 12.0 21.7 0.0
21-08-2019 16:18 5 56 21.2 1024.6 3.6 6.1 NW 1027.6 12.1 21.2 0.0
21-08-2019 16:23 5 55 20.8 1024.6 6.1 9.7 W 1027.6 11.5 20.8 0.0
21-08-2019 16:28 5 57 20.5 1024.7 3.6 7.2 NWW 1027.7 11.7 20.5 0.0
21-08-2019 16:33 5 58 20.3 1024.7 5.0 7.2 NNW 1027.7 11.8 20.3 0.0
21-08-2019 16:38 5 57 20.3 1024.9 6.1 8.6 NW 1027.9 11.5 20.3 0.0
21-08-2019 16:43 5 57 20.5 1024.7 5.0 6.1 N 1027.7 11.7 20.5 0.0
21-08-2019 16:48 5 54 20.9 1024.7 5.0 6.1 N 1027.7 11.3 20.9 0.0
21-08-2019 16:53 5 54 20.9 1024.8 2.5 5.0 NW 1027.8 11.3 20.9 0.0
21-08-2019 16:58 5 56 20.6 1024.9 5.0 8.6 W 1027.9 11.5 20.6 0.0
21-08-2019 17:03 5 56 20.4 1025.1 6.1 8.6 W 1028.1 11.4 20.4 0.0
21-08-2019 17:08 5 58 20.2 1025.0 6.1 9.7 NW 1028.0 11.7 20.2 0.0
21-08-2019 17:13 5 58 20.0 1025.0 5.0 8.6 W 1028.0 11.5 20.0 0.0
21-08-2019 17:18 5 58 19.9 1025.0 2.5 3.6 W 1028.0 11.4 19.9 0.0
21-08-2019 17:23 5 57 20.0 1025.0 6.1 7.2 NW 1028.0 11.2 20.0 0.0
21-08-2019 17:28 5 58 19.9 1024.9 2.5 5.0 W 1027.9 11.4 19.9 0.0
21-08-2019 17:33 5 58 19.9 1025.0 3.6 6.1 W 1028.0 11.4 19.9 0.0
21-08-2019 17:38 5 59 20.0 1024.9 1.1 2.5 W 1027.9 11.8 20.0 0.0
21-08-2019 17:43 5 60 20.0 1025.0 6.1 9.7 N 1028.0 12.0 20.0 0.0
21-08-2019 17:48 5 60 20.0 1025.1 3.6 6.1 NW 1028.1 12.0 20.0 0.0
21-08-2019 17:53 5 61 20.0 1025.0 2.5 3.6 W 1028.0 12.3 20.0 0.0
21-08-2019 17:58 5 61 19.9 1025.2 5.0 7.2 NW 1028.2 12.2 19.9 0.0
21-08-2019 18:03 5 61 20.0 1025.1 0.0 1.1 NW 1028.1 12.3 20.0 0.0
21-08-2019 18:08 5 61 20.0 1025.1 3.6 5.0 N 1028.1 12.3 20.0 0.0
21-08-2019 18:13 5 61 20.1 1025.2 1.1 2.5 N 1028.2 12.4 20.1 0.0
21-08-2019 18:18 5 61 20.2 1025.0 1.1 1.1 NWW 1028.0 12.5 20.2 0.0
21-08-2019 18:23 5 61 20.2 1025.1 3.6 5.0 W 1028.1 12.5 20.2 0.0
21-08-2019 18:28 5 61 20.2 1025.1 2.5 3.6 NNW 1028.1 12.5 20.2 0.0
21-08-2019 18:34 6 61 20.2 1025.1 1.1 3.6 NW 1028.1 12.5 20.2 0.0
21-08-2019 18:39 5 61 20.1 1025.2 2.5 3.6 NW 1028.2 12.4 20.1 0.0
21-08-2019 18:44 5 61 20.1 1025.2 1.1 2.5 NW 1028.2 12.4 20.1 0.0
21-08-2019 18:50 6 62 20.1 1025.1 0.0 2.5 NW 1028.1 12.6 20.1 0.0
21-08-2019 18:55 5 62 20.1 1025.3 0.0 0.0 N 1028.3 12.6 20.1 0.0
21-08-2019 19:00 5 62 20.1 1025.2 2.5 3.6 NW 1028.2 12.6 20.1 0.0
21-08-2019 19:06 6 63 19.9 1025.2 1.1 2.5 NW 1028.2 12.7 19.9 0.0
21-08-2019 19:11 5 63 19.7 1025.3 3.6 5.0 NW 1028.3 12.5 19.7 0.0
21-08-2019 19:16 5 62 19.5 1025.3 3.6 7.2 NW 1028.3 12.1 19.5 0.0
21-08-2019 19:22 6 63 19.3 1025.3 3.6 5.0 N 1028.3 12.1 19.3 0.0
21-08-2019 19:27 5 63 19.3 1025.3 0.0 1.1 NW 1028.3 12.1 19.3 0.0
21-08-2019 19:32 5 64 19.3 1025.3 1.1 2.5 N 1028.3 12.3 19.3 0.0
21-08-2019 19:38 6 64 19.1 1025.3 1.1 2.5 NNW 1028.3 12.2 19.1 0.0
21-08-2019 19:43 5 64 19.0 1025.3 0.0 0.0 NNW 1028.3 12.1 19.0 0.0
21-08-2019 19:48 5 64 18.9 1025.3 0.0 0.0 NNW 1028.3 12.0 18.9 0.0
21-08-2019 19:54 6 65 18.6 1025.3 0.0 0.0 NNW 1028.3 11.9 18.6 0.0
21-08-2019 19:59 5 66 18.5 1025.3 0.0 0.0 NNW 1028.3 12.1 18.5 0.0
21-08-2019 20:04 5 67 18.3 1025.4 0.0 0.0 NNW 1028.4 12.1 18.3 0.0
21-08-2019 20:10 6 67 18.3 1025.4 0.0 0.0 NNW 1028.4 12.1 18.3 0.0
21-08-2019 20:15 5 68 18.0 1025.5 0.0 0.0 NNW 1028.5 12.0 18.0 0.0
21-08-2019 20:20 5 69 17.9 1025.3 0.0 0.0 NNW 1028.3 12.2 17.9 0.0
21-08-2019 20:26 6 69 17.7 1025.5 0.0 0.0 NNW 1028.5 12.0 17.7 0.0
21-08-2019 20:31 5 70 17.5 1025.5 0.0 0.0 NNW 1028.5 12.0 17.5 0.0
21-08-2019 20:36 5 73 17.3 1025.5 0.0 0.0 NNW 1028.5 12.4 17.3 0.0
21-08-2019 20:41 5 74 17.1 1025.4 0.0 0.0 NNW 1028.4 12.5 17.1 0.0
21-08-2019 20:46 5 74 17.0 1025.5 0.0 0.0 NNW 1028.5 12.4 17.0 0.0
21-08-2019 20:51 5 74 16.8 1025.5 0.0 0.0 NNW 1028.5 12.2 16.8 0.0
21-08-2019 20:56 5 75 16.5 1025.4 0.0 0.0 NNW 1028.4 12.1 16.5 0.0
21-08-2019 21:02 6 75 16.3 1025.4 0.0 0.0 NNW 1028.4 11.9 16.3 0.0
21-08-2019 21:07 5 77 16.0 1025.5 0.0 0.0 NNW 1028.5 12.0 16.0 0.0
21-08-2019 21:12 5 78 15.9 1025.5 0.0 0.0 NNW 1028.5 12.1 15.9 0.0
21-08-2019 21:18 6 79 15.9 1025.6 0.0 0.0 NNW 1028.6 12.3 15.9 0.0
21-08-2019 21:23 5 78 15.9 1025.6 0.0 0.0 NNW 1028.6 12.1 15.9 0.0
21-08-2019 21:28 5 78 15.8 1025.7 0.0 0.0 NNW 1028.7 12.0 15.8 0.0
21-08-2019 21:34 6 79 15.7 1025.5 0.0 0.0 NNW 1028.5 12.1 15.7 0.0
21-08-2019 21:39 5 79 15.4 1025.5 0.0 0.0 NNW 1028.5 11.8 15.4 0.0
21-08-2019 21:44 5 78 15.1 1025.5 0.0 0.0 NNW 1028.5 11.3 15.1 0.0
21-08-2019 21:50 6 80 14.7 1025.5 0.0 0.0 NNW 1028.5 11.3 14.7 0.0
21-08-2019 21:55 5 81 14.4 1025.4 0.0 0.0 NNW 1028.4 11.2 14.4 0.0
21-08-2019 22:00 5 81 14.2 1025.5 0.0 0.0 NNW 1028.5 11.0 14.2 0.0
21-08-2019 22:05 5 82 14.1 1025.6 0.0 0.0 NNW 1028.6 11.1 14.1 0.0
21-08-2019 22:10 5 82 14.1 1025.5 0.0 0.0 NNW 1028.5 11.1 14.1 0.0
21-08-2019 22:15 5 83 13.6 1025.7 0.0 0.0 NNW 1028.7 10.8 13.6 0.0
21-08-2019 22:20 5 83 13.4 1025.8 0.0 0.0 NNW 1028.8 10.6 13.4 0.0
21-08-2019 22:26 6 84 13.1 1025.7 0.0 0.0 NNW 1028.7 10.5 13.1 0.0
21-08-2019 22:31 5 84 13.0 1025.6 0.0 0.0 NNW 1028.6 10.4 13.0 0.0
21-08-2019 22:36 5 85 12.9 1025.9 0.0 0.0 NNW 1028.9 10.5 12.9 0.0
21-08-2019 22:42 6 86 12.8 1025.8 0.0 0.0 NNW 1028.8 10.5 12.8 0.0
21-08-2019 22:47 5 88 12.9 1025.8 0.0 0.0 NNW 1028.8 11.0 12.9 0.0
21-08-2019 22:52 5 88 12.9 1025.8 0.0 0.0 NNW 1028.8 11.0 12.9 0.0
21-08-2019 22:58 6 88 12.6 1025.7 0.0 0.0 NNW 1028.7 10.7 12.6 0.0
21-08-2019 23:03 5 88 12.5 1025.8 0.0 0.0 NNW 1028.8 10.6 12.5 0.0
21-08-2019 23:08 5 91 12.3 1025.9 0.0 0.0 NNW 1028.9 10.9 12.3 0.0
21-08-2019 23:14 6 91 12.0 1025.9 0.0 0.0 NNW 1028.9 10.6 12.0 0.0
21-08-2019 23:19 5 91 12.0 1026.0 0.0 0.0 NNW 1029.0 10.6 12.0 0.0
21-08-2019 23:24 5 92 12.1 1026.0 0.0 0.0 NNW 1029.0 10.9 12.1 0.0
21-08-2019 23:30 6 93 12.1 1026.2 0.0 0.0 NNW 1029.2 11.0 12.1 0.0
21-08-2019 23:35 5 93 11.9 1026.2 0.0 0.0 NNW 1029.2 10.8 11.9 0.0
21-08-2019 23:40 5 92 11.6 1026.0 0.0 0.0 NNW 1029.0 10.4 11.6 0.0
21-08-2019 23:46 6 92 11.4 1026.1 0.0 0.0 NNW 1029.1 10.2 11.4 0.0
21-08-2019 23:51 5 92 11.4 1026.0 0.0 0.0 NNW 1029.0 10.2 11.4 0.0
21-08-2019 23:56 5 93 11.4 1026.1 0.0 0.0 NNW 1029.1 10.3 11.4 0.0

                                                                                Tabelle: 08 : 00 UHR

STATIONHÖHELUFTD.TEMP.T-MinT-MaxU%RR1RR12SSSDDFFFXWetter+WolkenBöen
UFS TW Ems 0 ------ --- --- --- --- ---- --- --- -- --- --- --- ---
UFS Deutsche Bucht 0 ------ --- --- --- --- ---- --- --- -- --- --- --- ---
Helgoland 4 1026.2 15.5 14.7 17.7 81 0.1 3 --- -- --- ---   ---
List/Sylt 26 1025.6 14.9 13.4 16.9 73 0.0 1 0 NW 10 20 --- ---
Schleswig 43 1025.7 14.2 11.2 16.2 88 0.0 0 0 W 8 15 Regenschauer ---
Leuchtturm Kiel 5 1025.7 14.1 14.0 18.4 88 ---- --- --- SW 32 37 --- ---
Kiel 27 1026.0 12.9 11.5 18.1 92 0.0 0 --- SW 6 14 wolkenlos ---
Fehmarn 3 1025.7 16.5 15.7 18.9 77 0.0 0 --- W 23 39 wolkenlos ---
Arkona 42 1025.5 16.9 15.0 18.6 76 0.0 0 --- W 17 27 --- ---
Norderney 11 1026.7 15.7 15.4 17.7 83 0.0 0 --- SW 17 26 --- ---
Leuchtt. Alte Weser 32 1026.6 14.5 14.6 17.8 93 ---- --- --- SW 25 --- --- ---
Cuxhaven 5 1026.7 13.9 13.7 17.3 92 4.7 7 --- SW 9 29 Regen ---
Hamburg-Flh. 11 1027.0 13.3 10.8 16.1 89 0.0 0 0 SW 8 12 heiter ---
Schwerin 59 1027.0 13.2 11.8 19.1 91 0.0 0 --- SW 11 17 wolkenlos ---
Rostock 4 1026.1 14.7 13.3 18.7 89 0.0 1 --- SW 12 18 wolkenlos ---
Greifswald 2 1026.1 14.7 12.2 19.2 79 0.0 0 0 W 12 18 heiter ---
Emden 0 1027.2 14.0 12.3 17.8 87 0.0 0 --- SW 8 14 wolkenlos ---
Bremen-Flh. 5 1027.9 11.5 9.1 18.9 96 0.0 8 0 SW 5 8 Nebel ---
Lüchow 17 1028.0 13.1 8.8 20.0 88 0.0 0 --- SW 5 7 --- ---
Marnitz 81 1027.0 14.2 11.6 19.3 82 0.0 0 --- NW 10 20 wolkenlos ---
Waren 70 1026.6 15.0 12.1 19.4 79 0.0 0 --- W 12 18 wolkenlos ---
Neuruppin 38 1026.9 13.3 11.5 20.3 83 0.0 0 --- W 5 12 --- ---
Angermünde 56 1026.3 15.0 12.3 21.0 79 0.0 1 0 SW 4 7 wolkenlos ---
Münster/Osnabr.-Flh. 48 1029.0 9.2 7.8 15.4 99 0.0 0 0 SO 3 5 Nebel ---
Hannover-Flh. 59 1028.4 12.5 10.4 19.8 88 0.0 0 0 W 6 11 wolkenlos ---
Magdeburg 76 1027.9 14.9 12.9 20.1 75 0.0 0 --- W 5 13 --- ---
Potsdam 81 1027.1 14.2 13.1 20.4 81 0.0 0 0 W 13 24 heiter ---
Berlin-Tegel 37 1026.9 14.4 12.1 21.3 79 0.0 1 0 W 11 17 heiter ---
Berlin-Tempelhof 48 1026.8 15.8 14.6 21.6 75 0.0 1 --- NW 15 21 --- ---
Berlin-Dahlem 51 1026.6 14.3 12.2 21.0 --- ---- 1 0 NW 11 --- heiter ---
Lindenberg 91 1026.4 14.3 13.1 20.5 94 0.0 4 0 SW 6 18 heiter ---
Düsseldorf-Flh. 45 1029.0 13.4 9.4 17.9 84 0.0 0 0 SO 4 11 Dunst oder flacher Nebel ---
Essen 150 1029.0 13.4 10.7 14.3 87 0.0 0 --- S 3 8 wolkenlos ---
Kahler Asten 839 ------ 10.5 9.3 12.5 72 0.0 0 --- W 11 17 wolkenlos ---
Bad Lippspringe 157 1029.3 11.3 8.2 19.1 89 0.0 0 --- - 0 5 wolkenlos ---
Fritzlar 174 1029.8 9.3 6.1 19.0 93 ---- 0 0 SO 4 --- heiter ---
Brocken 1142 ------ 7.9 7.0 9.8 91 ---- 0 0 W 27 32 wolkenlos ---
Leipzig-Flh. 142 1028.3 13.2 11.3 17.8 81 0.0 1 0 W 14 20 wolkenlos ---
Dresden-Flh. 227 1027.7 14.5 13.1 21.1 88 0.0 4 0 S 9 15 heiter ---
Cottbus 69 1026.8 14.6 13.9 22.5 93 0.0 3 --- SW 7 12 --- ---
Görlitz 238 1027.5 13.8 13.4 18.8 92 0.0 13 --- W 8 17 Regen ---
Aachen 231 1029.0 11.8 9.9 18.3 83 0.0 0 --- SO 6 7 --- ---
Nürburg 485 1029.6 9.1 8.1 17.3 89 0.0 0 --- SW 3 5 wolkenlos ---
Köln/Bonn-Flh. 92 1029.3 10.6 8.9 20.6 92 0.0 0 0 SO 5 9 heiter ---
Gießen/Wettenberg 203 1029.7 9.4 7.2 16.9 88 0.0 0 --- - 0 9 wolkenlos ---
Wasserkuppe 921 ------ 11.4 8.7 11.6 72 0.0 0 --- N 5 11 wolkenlos ---
Meiningen 450 1030.2 9.1 7.3 15.1 96 0.0 0 --- S 2 4 Nebel ---
Erfurt 316 1029.1 11.7 9.1 15.8 82 0.0 0 0 SW 11 14 wolkenlos ---
Gera 311 1028.9 12.6 11.1 16.2 88 0.0 3 --- W 11 15 wolkenlos ---
Fichtelberg 1213 ------ 7.0 6.8 9.8 96 ---- --- --- NW 24 29 Nebel ---
Trier 265 1029.3 10.4 9.0 15.6 98 0.0 0 --- N 6 14 Nebel ---
Hahn-Flh. 497 1028.6 13.2 11.3 15.7 76 0.0 0 --- O 4 9 --- ---
Frankfurt/M-Flh. 112 1029.1 13.1 10.1 18.4 85 0.0 0 0 O 3 9 heiter ---
OF-Wetterpark 119 1029.3 11.8 9.5 18.2 92 0.0 0 --- - 0 3 wolkenlos ---
Würzburg 268 1030.2 10.2 9.6 14.9 98 0.0 0 --- S 5 8 Nebel ---
Bamberg 239 1029.8 11.1 9.3 15.2 98 0.0 2 --- S 5 8 Nebel ---
Hof 567 1029.1 11.6 9.7 13.8 86 0.0 5 --- SW 3 6 wolkenlos ---
Weiden 438 1029.4 12.3 11.7 15.3 96 0.0 9 --- W 4 8 --- ---
Saarbrücken-Flh. 320 1028.8 11.9 9.1 17.3 93 0.0 0 0 O 5 5 Nebel ---
Karlsruhe-Rheinst. 116 1029.1 11.9 8.9 16.8 87 0.0 0 --- N 2 4 wolkenlos ---
Mannheim 96 1028.9 13.8 12.8 18.5 92 0.0 0 --- SO 8 18 --- ---
Stuttgart-Flh. 371 1029.8 9.8 8.5 14.1 99 0.0 0 --- SO 5 8 Nebel ---
Öhringen 276 1029.7 10.9 9.3 14.4 92 0.0 0 --- SO 5 10 wolkenlos ---
Nürnberg-Flh. 314 1029.8 12.1 9.2 14.7 94 0.0 3 0 SO 2 9 heiter ---
Regensburg 366 1029.2 12.9 12.6 15.6 97 0.0 12 --- -- 2 8 --- ---
Straubing 351 1029.0 14.0 13.5 17.0 96 0.0 9 --- W 6 10 --- ---
Großer Arber 1436 ------ 6.6 6.6 12.0 100 0.0 13 --- N 18 24 Niederschlag ---
Lahr 155 1029.0 11.2 8.7 15.4 99 0.0 0 --- N 4 6 Nebel ---
Freudenstadt 797 ------ 9.1 6.0 11.3 95 0.0 0 --- O 2 6 wolkenlos ---
Stötten 734 1028.9 12.1 9.5 12.2 82 0.0 3 --- NO 6 9 wolkenlos ---
Augsburg 462 1029.3 13.2 12.3 13.9 95 0.0 10 --- S 3 4 --- ---
München-Flh. 444 1029.3 13.3 12.6 14.8 94 0.0 11 0 W 5 8 stark bewölkt ---
Fürstenzell 476 1029.1 13.2 13.0 17.7 97 0.2 5 --- W 12 18 Regen ---
Feldberg/Schw. 1486 ------ 6.6 6.0 7.2 78 0.0 1 0 O 44 50 wolkenlos Windböen
Konstanz 443 1028.4 13.1 11.8 14.1 90 0.0 4 --- N 8 16 wolkenlos ---
Kempten 705 1028.3 12.2 11.2 12.9 94 0.0 11 --- N 3 7 --- ---
Oberstdorf 806 ------ 11.4 10.7 12.8 93 0.0 20 --- - 0 4 --- ---
Zugspitze 2960 ------ 1.6 -0.3 3.7 98 ---- --- 1 S 25 31 Nebel ---
Hohenpeißenberg 977 ------ 9.5 9.1 11.1 100 0.0 15 --- NO 9 19 Nebel ---

                                                                                              Tabelle: 20 : 00 UHR   

STATIONHÖHELUFTD.TEMP.T-MinT-MaxU%RR1RR12SSSDDFFFXWetter+WolkenBöen
UFS TW Ems 0 ------ --- --- --- --- ---- --- --- -- --- --- --- ---
UFS Deutsche Bucht 26 ------ --- --- --- --- ---- --- --- -- --- --- --- ---
Helgoland 4 1027.1 18.3 15.5 19.5 56 0.0 0 --- -- --- ---   ---
List/Sylt 26 1026.7 17.3 14.9 19.4 69 0.0 0 0 SW 14 26 wolkenlos ---
Schleswig 43 1027.3 17.2 13.5 20.8 65 0.0 0 0 W 4 18 heiter ---
Leuchtturm Kiel 5 1027.4 18.3 14.2 19.1 61 ---- --- --- SW 27 31 --- ---
Kiel 27 1027.6 17.8 12.9 20.3 67 0.0 0 --- SW 5 19 --- ---
Fehmarn 3 1027.6 18.5 16.4 19.9 69 0.0 0 --- SW 12 18 --- ---
Arkona 42 1027.8 17.2 16.9 19.9 64 0.0 0 --- W 16 27 wolkenlos ---
Norderney 11 1027.0 18.8 15.5 20.8 56 0.0 0 --- S 6 11 wolkenlos ---
Leuchtt. Alte Weser 32 1027.2 18.8 14.5 19.9 60 ---- --- --- SO 7 --- --- ---
Cuxhaven 5 1027.5 18.1 13.9 20.0 64 0.0 0 --- NW 6 14 --- ---
Hamburg-Flh 11 1027.6 17.8 13.3 21.7 64 0.0 0 0 N 6 15 heiter ---
Schwerin 59 1028.0 18.9 13.2 21.5 62 0.0 0 --- NO 6 16 --- ---
Rostock 4 1027.9 18.3 14.8 20.1 65 0.0 0 --- W 6 9 --- ---
Greifswald 2 1028.1 18.7 14.6 22.3 50 0.0 0 0 NW 7 19 heiter ---
Emden 0 1027.0 19.7 14.0 21.7 56 0.0 0 --- NW 4 12 --- ---
Bremen-Flh. 5 1027.4 20.2 11.6 22.0 47 0.0 0 0 -- --- 11 heiter ---
Lüchow 17 1028.0 19.6 13.1 23.2 45 0.0 0 --- NW 3 16 --- ---
Marnitz 81 1027.9 19.2 14.2 22.5 52 0.0 0 --- N 4 16 --- ---
Waren 70 1027.9 19.4 15.0 22.5 51 0.0 0 --- N 4 14 --- ---
Neuruppin 38 1027.8 19.4 13.4 23.2 46 0.0 0 --- W 3 10 --- ---
Angermünde 56 1027.7 20.2 15.0 24.0 42 0.0 0 0 NW 9 15 wolkenlos ---
Münster/Osnabr.-Flh. 48 1027.1 19.1 9.2 22.7 58 0.0 0 0 SO 2 8 heiter ---
Hannover-Flh. 59 1027.6 19.2 12.5 22.3 51 0.0 0 0 N 5 15 heiter ---
Magdeburg 76 1027.8 20.0 14.9 23.6 41 0.0 0 --- N 5 13 --- ---
Potsdam 81 1027.8 19.8 14.1 24.3 43 0.0 0 0 N 8 16 heiter ---
Berlin-Tegel 37 1027.8 20.3 14.5 22.8 42 0.0 0 0 NW 5 17 heiter ---
Berlin-Tempelhof 48 1027.8 20.0 15.8 24.0 43 0.0 0 --- N 10 15 --- ---
Berlin-Dahlem 51 1027.5 19.3 14.3 23.1 --- ---- 0 0 NW 7 --- heiter ---
Lindenberg 91 1027.7 18.6 14.4 23.1 53 0.0 0 0 NW 3 12 heiter ---
Düsseldorf-Flh. 45 1026.5 21.8 13.3 23.5 43 0.0 0 0 N 7 11 heiter ---
Essen 150 1026.6 20.5 13.3 21.9 47 0.0 0 --- O 4 7 --- ---
Kahler Asten 839 ------ 15.2 10.5 17.9 52 0.0 0 --- O 8 13 --- ---
Bad Lippspringe 157 1027.1 19.4 11.3 22.3 50 0.0 0 --- NO 4 8 --- ---
Fritzlar 174 1026.5 20.8 9.4 23.7 39 ---- 0 0 NO 7 --- heiter ---
Brocken 1142 ------ 11.2 8.0 14.7 62 ---- 0 0 N 6 13 heiter ---
Leipzig-Flh. 142 1027.3 20.2 --- 24.0 45 0.0 0 0 NO 6 8 heiter ---
Dresden-Flh. 227 1027.5 20.5 14.6 22.1 46 0.0 0 0 W 4 12 heiter ---
Cottbus 69 1027.2 21.0 14.6 24.4 47 0.0 0 --- NO 5 12 --- ---
Görlitz 238 1027.6 18.8 13.8 22.7 66 0.0 0 --- N 4 7 wolkenlos ---
Aachen 231 1026.0 20.2 11.9 21.9 50 0.0 0 --- NO 9 14 --- ---
Nürburg 485 1025.7 19.6 7.9 21.1 41 0.0 0 --- SO 3 8   ---
Köln/Bonn-Flh. 92 1026.4 20.7 10.5 23.5 53 0.0 0 0 O 9 13 heiter ---
Gießen/Wettenberg 203 1026.2 21.4 9.4 23.8 39 0.0 0 --- O 4 9 --- ---
Wasserkuppe 921 ------ 14.6 11.4 18.0 57 0.0 0 --- SO 8 11 --- ---
Meiningen 450 1027.0 18.2 9.1 21.0 47 0.0 0 --- NW 8 10 --- ---
Erfurt 316 1026.9 19.7 11.7 22.6 39 0.0 0 0 N 7 11 heiter ---
Gera 311 1027.4 18.6 12.6 22.3 53 0.0 0 --- O 7 17 wolkenlos ---
Fichtelberg 1213 ------ 11.5 --- --- 67 ---- --- --- NO 13 16 wolkenlos ---
Trier 265 1025.2 20.5 10.3 23.7 48 0.0 0 --- NO 11 22 --- ---
Hahn-Flh. 497 1025.9 18.5 13.0 21.5 45 0.0 0 --- SO 12 19 --- ---
Frankfurt/M-Flh. 112 1026.0 22.0 13.2 24.3 40 0.0 0 0 O 5 9 heiter ---
OF-Wetterpark 119 1026.2 20.4 12.0 24.4 55 0.0 0 --- O 4 12 --- ---
Würzburg 268 1027.0 19.9 10.2 24.0 44 0.0 0 --- SO 9 19 --- ---
Bamberg 239 1026.6 18.5 11.0 22.8 72 0.0 0 --- SW 3 9 wolkenlos ---
Hof 567 1026.8 18.0 11.6 20.5 47 0.0 0 --- NO 7 15 --- ---
Weiden 438 1026.5 18.9 12.2 21.9 49 0.0 0 --- SO 5 12 wolkenlos ---
Saarbrücken-Flh. 320 1025.2 20.4 11.9 23.2 46 0.0 0 0 O 11 28 heiter ---
Karlsruhe-Rheinst. 116 1025.4 22.1 12.0 24.8 41 0.0 0 --- O 11 26 --- ---
Mannheim 96 1025.9 22.1 13.8 24.7 43 0.0 0 --- SO 7 16 --- ---
Stuttgart-Flh. 371 1025.7 18.5 9.8 21.9 61 0.0 0 --- O 12 22 heiter ---
Öhringen 276 1026.1 20.3 10.8 23.5 48 0.0 0 --- O 10 23 wolkenlos ---
Nürnberg-Flh. 314 1026.5 18.9 12.1 22.3 63 0.0 0 0 NO 4 8 heiter ---
Regensburg 366 1026.5 19.0 12.8 23.4 66 0.0 0 --- -- 10 18 --- ---
Straubing 351 1026.8 18.2 14.0 21.4 75 0.0 0 --- SO 9 16 --- ---
Großer Arber 1436 ------ 9.4 6.6 11.1 83 0.0 0 --- NO 10 18 --- ---
Lahr 155 1024.7 20.2 11.1 24.2 60 0.0 0 --- O 6 17 --- ---
Freudenstadt 797 ------ 15.3 8.8 18.3 67 0.0 0 --- O 12 25 --- ---
Stötten 734 1026.5 15.4 12.2 18.7 66 0.0 0 --- O 9 19 --- ---
Augsburg 462 1026.3 17.0 13.2 20.2 75 0.0 0 --- O 8 16 --- ---
München-Flh. 444 1026.5 17.5 13.4 19.2 72 0.0 0 0 O 5 15 bewölkt ---
Fürstenzell 476 1027.3 16.2 13.1 19.8 77 0.0 0 --- SO 11 16 --- ---
Feldberg/Schw. 1486 ------ 9.1 6.6 11.3 83 0.0 0 0 O 42 52 --- Windböen
Konstanz 443 1024.8 18.2 13.0 21.2 64 0.0 0 --- NO 13 28 --- ---
Kempten 705 ------ --- --- --- --- ---- --- --- -- --- ---   ---
Oberstdorf 806 ------ 14.6 11.4 17.8 91 0.0 0 --- S 4 6 --- ---
Zugspitze 2960 ------ 6.1 1.5 9.3 84 ---- --- --- SW 10 17 --- ---
Hohenpeißenberg 977 ------ 12.4 9.4 13.9 90 0.0 0 --- NO 13 22 --- ---

 

  • Wetterzustand
  • Windrichtung und -geschwindigkeit
  • Luftdruck
  • relative Luftfeuchtigkeit
  • Sichtweite
  • Gesamtbedeckungsgrad
  • Niederschlag
  • Sonnenscheindauer

 Höhe:     m über NN
Luftd.:   auf Meereshöhe reduzierter Luftdruck in hPa
TEMP.:   Lufttemperatur in Grad Celsius
T-MIN:   Minimumtemperatur der Luft in 2m Höhe in Grad Celsius, von 18 UTC Vortag bis 06 UTC heute
T-MAX:  Maximumtemperatur der Luft in 2m Höhe in Grad Celsius, von 18 UTC Vortag bis 06 UTC heute
RR1:     Niederschlagsmenge, einstündig, mm ist gleich Liter pro
RR12:   Niederschlagsmenge, 12 stündig, 18 UTC Vortag bis 06 UTC heute in mm ist gleich Liter pro
SSS:     Gesamtschneehöhe
DD:      Windrichtung
FF:       Windgeschwindigkeit letztes 10-Minutenmittel in km/h
FX:       höchste Windspitze während der letzten Stunde in km/h
---:      Wert nicht vorhanden

 

2009-2019

Unwetterwarnungen

 

  Radarbild           

aktueller Radarfilm Deutschland

  Europa-Meteoalarm